Terminal Aerodrome Forecast
Issued by NWS

Home | Current Version | Previous Version | Text Only | Print | Product List | Glossary Off
Versions: 1 2 3 4 5 6 7 8 9 10 11 12 13 14 15 16 17 18 19 20

000
FTUS43 KABR 010541
TAFPIR
TAF
KPIR 010541Z 0106/0206 17003KT P6SM SKC
     FM010700 15004KT P6SM BKN120
     FM011800 24011KT P6SM BKN250
     FM012100 33013KT P6SM SCT250=

USA.gov is the U.S. government's official web portal to all federal, state and local government web resources and services.